Time;durP1;ratioP1;P1;durP2;ratioP2;P2;SDS_P1;SDS_P2;PMS_P1;PMS_P2;Temp;Humidity;BMP_temperature;BMP_pressure;BME280_temperature;BME280_humidity;BME280_pressure;Samples;Min_cycle;Max_cycle;Signal;HPM_P1;HPM_P2
2023/05/04 00:01:00;;;;;;;6.97;3.57;;;;;;;;;;5070419;28;20358;-83
2023/05/04 00:03:25;;;;;;;8.18;4.05;;;;;;;;;;5072477;28;20253;-84
2023/05/04 00:05:50;;;;;;;8.47;4.20;;;;;;;;;;5054592;28;20024;-84
2023/05/04 00:08:16;;;;;;;7.35;4.50;;;;;;;;;;5071457;28;20257;-84
2023/05/04 00:10:41;;;;;;;5.50;3.85;;;;;;;;;;5071910;28;20017;-84
2023/05/04 00:13:06;;;;;;;6.43;3.95;;;;;;;;;;5073622;28;20027;-84
2023/05/04 00:15:32;;;;;;;8.93;4.43;;;;;;;;;;5083731;28;20044;-83
2023/05/04 00:17:57;;;;;;;6.60;4.17;;;;;;;;;;5072212;28;20261;-82
2023/05/04 00:20:22;;;;;;;5.77;3.63;;;;;;;;;;5072334;28;20258;-83
2023/05/04 00:22:47;;;;;;;6.60;4.60;;;;;;;;;;5072414;28;20044;-83
2023/05/04 00:25:12;;;;;;;7.88;4.55;;;;;;;;;;5069622;28;20339;-82
2023/05/04 00:27:38;;;;;;;7.27;4.27;;;;;;;;;;5069537;28;20020;-83
2023/05/04 00:30:03;;;;;;;6.17;3.67;;;;;;;;;;5053538;28;20288;-83
2023/05/04 00:32:29;;;;;;;7.40;4.50;;;;;;;;;;5072216;28;20290;-84
2023/05/04 00:34:55;;;;;;;6.78;4.40;;;;;;;;;;5072195;28;20023;-84
2023/05/04 00:37:20;;;;;;;6.18;4.47;;;;;;;;;;5071318;28;20020;-84
2023/05/04 00:39:45;;;;;;;5.70;4.13;;;;;;;;;;5071741;28;20016;-84
2023/05/04 00:42:10;;;;;;;8.33;4.33;;;;;;;;;;5072019;28;20350;-84
2023/05/04 00:44:39;;;;;;;9.05;4.25;;;;;;;;;;5070929;28;20307;-84
2023/05/04 00:47:05;;;;;;;7.45;4.53;;;;;;;;;;5071968;28;20018;-84
2023/05/04 00:49:30;;;;;;;8.23;3.70;;;;;;;;;;5053880;28;20028;-84
2023/05/04 00:51:55;;;;;;;6.37;3.93;;;;;;;;;;5072054;28;20307;-84
2023/05/04 00:54:22;;;;;;;6.53;4.30;;;;;;;;;;5071834;28;20326;-84
2023/05/04 00:56:47;;;;;;;7.35;3.97;;;;;;;;;;5071932;28;20490;-84
2023/05/04 00:59:13;;;;;;;5.70;3.10;;;;;;;;;;5070214;28;20031;-84
2023/05/04 01:01:39;;;;;;;5.07;3.58;;;;;;;;;;5070116;28;20026;-84
2023/05/04 01:04:04;;;;;;;7.07;3.75;;;;;;;;;;5071711;28;20551;-84
2023/05/04 01:06:32;;;;;;;6.47;3.67;;;;;;;;;;5071780;28;20021;-84
2023/05/04 01:09:11;;;;;;;5.38;3.22;;;;;;;;;;5071687;28;20021;-84
2023/05/04 01:11:40;;;;;;;5.97;3.75;;;;;;;;;;5071755;28;20016;-84
2023/05/04 01:14:05;;;;;;;8.95;4.32;;;;;;;;;;5070939;28;20042;-84
2023/05/04 01:16:31;;;;;;;11.77;4.55;;;;;;;;;;5071686;28;20031;-84
2023/05/04 01:18:56;;;;;;;6.45;3.55;;;;;;;;;;5071404;28;20069;-84
2023/05/04 01:21:21;;;;;;;7.63;4.00;;;;;;;;;;5071673;28;20073;-84
2023/05/04 01:23:46;;;;;;;8.52;3.92;;;;;;;;;;5053563;28;20342;-84
2023/05/04 01:26:11;;;;;;;6.90;3.95;;;;;;;;;;5069755;28;20489;-84
2023/05/04 01:28:48;;;;;;;5.63;4.00;;;;;;;;;;5068421;28;20048;-84
2023/05/04 01:31:15;;;;;;;6.53;3.95;;;;;;;;;;5071387;28;20028;-84
2023/05/04 01:33:41;;;;;;;9.10;3.42;;;;;;;;;;5071540;28;20094;-83
2023/05/04 01:36:07;;;;;;;7.75;3.67;;;;;;;;;;5071526;28;20036;-84
2023/05/04 01:38:32;;;;;;;7.95;4.18;;;;;;;;;;5071476;28;20010;-84
2023/05/04 01:40:57;;;;;;;9.70;3.83;;;;;;;;;;5071201;28;20031;-84
2023/05/04 01:43:23;;;;;;;7.70;4.07;;;;;;;;;;5052363;28;20075;-84
2023/05/04 01:45:48;;;;;;;6.97;4.43;;;;;;;;;;5071242;28;20321;-84
2023/05/04 01:48:13;;;;;;;7.10;3.60;;;;;;;;;;5053272;28;20044;-84
2023/05/04 01:50:39;;;;;;;5.43;3.20;;;;;;;;;;5074486;28;20031;-83
2023/05/04 01:53:04;;;;;;;6.13;3.30;;;;;;;;;;5075263;28;20296;-84
2023/05/04 01:55:30;;;;;;;4.47;2.53;;;;;;;;;;5075143;28;20058;-84
2023/05/04 01:57:55;;;;;;;6.05;3.17;;;;;;;;;;5072820;28;20276;-84
2023/05/04 02:00:20;;;;;;;6.65;3.30;;;;;;;;;;5074196;28;20017;-84
2023/05/04 02:02:46;;;;;;;5.82;3.58;;;;;;;;;;5073681;28;20378;-84
2023/05/04 02:05:11;;;;;;;7.77;3.40;;;;;;;;;;5075052;28;20078;-84
2023/05/04 02:07:36;;;;;;;7.45;3.30;;;;;;;;;;5075116;28;20260;-83
2023/05/04 02:10:02;;;;;;;5.18;3.58;;;;;;;;;;5057086;28;20085;-83
2023/05/04 02:12:27;;;;;;;8.95;3.50;;;;;;;;;;5071877;28;20367;-84
2023/05/04 02:14:52;;;;;;;6.87;3.63;;;;;;;;;;5073821;28;20397;-85
2023/05/04 02:17:18;;;;;;;5.47;3.10;;;;;;;;;;5074650;28;20653;-85
2023/05/04 02:19:43;;;;;;;4.05;3.08;;;;;;;;;;5074591;28;20265;-84
2023/05/04 02:22:08;;;;;;;4.50;2.97;;;;;;;;;;5075176;28;20024;-84
2023/05/04 02:24:34;;;;;;;6.18;3.45;;;;;;;;;;5074502;28;20269;-84
2023/05/04 02:27:00;;;;;;;10.68;3.50;;;;;;;;;;5074525;28;20020;-85
2023/05/04 02:29:25;;;;;;;5.75;3.05;;;;;;;;;;5055685;28;20027;-85
2023/05/04 02:31:50;;;;;;;6.47;2.70;;;;;;;;;;5071820;28;20391;-85
2023/05/04 02:34:16;;;;;;;7.65;3.75;;;;;;;;;;5074696;28;20746;-84
2023/05/04 02:36:41;;;;;;;7.50;3.13;;;;;;;;;;5056575;28;20408;-86
2023/05/04 02:39:06;;;;;;;6.03;3.20;;;;;;;;;;5074333;28;20768;-86
2023/05/04 02:41:31;;;;;;;10.77;3.08;;;;;;;;;;5074486;28;20276;-85
2023/05/04 02:43:57;;;;;;;9.10;4.38;;;;;;;;;;5073418;28;20020;-84
2023/05/04 02:46:24;;;;;;;3.27;2.77;;;;;;;;;;5074176;28;20032;-85
2023/05/04 02:48:49;;;;;;;5.45;3.72;;;;;;;;;;5074057;28;20763;-84
2023/05/04 02:51:14;;;;;;;6.22;3.47;;;;;;;;;;5074238;28;20024;-85
2023/05/04 02:53:40;;;;;;;10.70;3.80;;;;;;;;;;5074320;28;20013;-84
2023/05/04 02:56:05;;;;;;;7.53;3.95;;;;;;;;;;5074215;28;20024;-84
2023/05/04 02:58:30;;;;;;;7.25;3.50;;;;;;;;;;5072582;28;20024;-84
2023/05/04 03:00:55;;;;;;;7.07;3.83;;;;;;;;;;5071149;28;20470;-84
2023/05/04 03:03:21;;;;;;;6.70;3.55;;;;;;;;;;5073819;28;20254;-84
2023/05/04 03:05:46;;;;;;;10.23;3.87;;;;;;;;;;5073958;28;20024;-84
2023/05/04 03:08:11;;;;;;;7.80;3.85;;;;;;;;;;5073971;28;20275;-84
2023/05/04 03:10:36;;;;;;;10.97;4.07;;;;;;;;;;5073886;28;20024;-84
2023/05/04 03:13:04;;;;;;;8.52;3.75;;;;;;;;;;5073609;28;20297;-84
2023/05/04 03:15:33;;;;;;;5.78;4.18;;;;;;;;;;5072537;28;20048;-84
2023/05/04 03:17:58;;;;;;;5.05;3.58;;;;;;;;;;5055677;28;20482;-84
2023/05/04 03:20:23;;;;;;;6.70;3.60;;;;;;;;;;5073621;28;20052;-84
2023/05/04 03:22:49;;;;;;;7.35;3.80;;;;;;;;;;5073602;28;20296;-84
2023/05/04 03:25:14;;;;;;;9.07;3.70;;;;;;;;;;5055428;28;20059;-84
2023/05/04 03:27:39;;;;;;;5.83;3.50;;;;;;;;;;5073499;28;20023;-84
2023/05/04 03:30:05;;;;;;;7.40;4.05;;;;;;;;;;5054530;28;20265;-84
2023/05/04 03:32:30;;;;;;;5.40;3.67;;;;;;;;;;5055522;28;20031;-84
2023/05/04 03:34:55;;;;;;;6.37;3.50;;;;;;;;;;5055318;28;20054;-84
2023/05/04 03:37:21;;;;;;;4.57;3.63;;;;;;;;;;5073148;28;20683;-84
2023/05/04 03:39:46;;;;;;;3.50;2.90;;;;;;;;;;5055277;28;20834;-84
2023/05/04 03:42:11;;;;;;;6.23;3.50;;;;;;;;;;5073275;28;20031;-84
2023/05/04 03:44:37;;;;;;;5.03;3.57;;;;;;;;;;5072147;28;20277;-84
2023/05/04 03:47:02;;;;;;;8.52;3.40;;;;;;;;;;5073051;28;20298;-84
2023/05/04 03:49:27;;;;;;;8.48;4.70;;;;;;;;;;5072837;28;20040;-84
2023/05/04 03:51:53;;;;;;;7.28;3.20;;;;;;;;;;5073081;28;20027;-84
2023/05/04 03:54:18;;;;;;;5.32;3.60;;;;;;;;;;5072974;28;20096;-84
2023/05/04 03:56:43;;;;;;;8.25;3.75;;;;;;;;;;5072944;28;20082;-84
2023/05/04 03:59:08;;;;;;;6.20;3.33;;;;;;;;;;5071318;28;20458;-84
2023/05/04 04:01:34;;;;;;;6.73;4.30;;;;;;;;;;5071002;28;20273;-84
2023/05/04 04:03:59;;;;;;;7.43;3.22;;;;;;;;;;5072714;28;20258;-84
2023/05/04 04:06:25;;;;;;;6.55;3.53;;;;;;;;;;5054796;28;20032;-84
2023/05/04 04:08:50;;;;;;;8.15;3.85;;;;;;;;;;5072661;28;20025;-83
2023/05/04 04:11:15;;;;;;;5.20;3.47;;;;;;;;;;5072654;28;20522;-83
2023/05/04 04:13:40;;;;;;;9.57;3.70;;;;;;;;;;5071483;28;20355;-83
2023/05/04 04:16:05;;;;;;;6.53;3.77;;;;;;;;;;5072480;28;20340;-83
2023/05/04 04:18:31;;;;;;;11.73;5.00;;;;;;;;;;5072349;28;20257;-84
2023/05/04 04:20:56;;;;;;;6.78;3.47;;;;;;;;;;5072371;28;20355;-83
2023/05/04 04:23:22;;;;;;;6.35;3.88;;;;;;;;;;5072363;28;20026;-83
2023/05/04 04:25:47;;;;;;;6.90;3.83;;;;;;;;;;5072347;28;20040;-83
2023/05/04 04:28:12;;;;;;;7.07;4.20;;;;;;;;;;5071616;28;20024;-83
2023/05/04 04:30:38;;;;;;;6.15;3.83;;;;;;;;;;5072254;28;20253;-83
2023/05/04 04:33:03;;;;;;;4.97;4.00;;;;;;;;;;5072257;28;20514;-84
2023/05/04 04:35:29;;;;;;;7.05;4.35;;;;;;;;;;5072353;28;20809;-84
2023/05/04 04:37:54;;;;;;;8.40;4.40;;;;;;;;;;5072153;28;20024;-83
2023/05/04 04:40:21;;;;;;;5.60;3.27;;;;;;;;;;5072364;28;20017;-84
2023/05/04 04:42:46;;;;;;;5.00;3.90;;;;;;;;;;5071212;28;20747;-84
2023/05/04 04:45:12;;;;;;;6.75;4.65;;;;;;;;;;5072012;28;20047;-84
2023/05/04 04:47:38;;;;;;;10.27;4.95;;;;;;;;;;5054008;28;20032;-83
2023/05/04 04:50:04;;;;;;;5.47;3.75;;;;;;;;;;5072044;28;20017;-84
2023/05/04 04:52:31;;;;;;;8.32;4.15;;;;;;;;;;5054146;28;20489;-84
2023/05/04 04:54:56;;;;;;;6.50;3.80;;;;;;;;;;5072482;28;20023;-84
2023/05/04 04:57:21;;;;;;;6.67;4.30;;;;;;;;;;5070427;28;20021;-83
2023/05/04 04:59:46;;;;;;;6.10;4.40;;;;;;;;;;5071717;28;20261;-83
2023/05/04 05:02:12;;;;;;;8.77;4.70;;;;;;;;;;5070402;28;20277;-84
2023/05/04 05:04:38;;;;;;;7.33;4.73;;;;;;;;;;5071847;28;20287;-84
2023/05/04 05:07:04;;;;;;;7.07;4.03;;;;;;;;;;5071810;28;20297;-83
2023/05/04 05:09:29;;;;;;;7.07;4.30;;;;;;;;;;5071719;28;20486;-83
2023/05/04 05:11:55;;;;;;;6.07;3.58;;;;;;;;;;5071756;28;20801;-83
2023/05/04 05:14:20;;;;;;;8.02;4.65;;;;;;;;;;5052448;28;20390;-83
2023/05/04 05:16:45;;;;;;;8.93;4.77;;;;;;;;;;5071587;28;20028;-83
2023/05/04 05:19:10;;;;;;;7.03;5.13;;;;;;;;;;5071578;28;20256;-83
2023/05/04 05:21:36;;;;;;;8.07;4.40;;;;;;;;;;5071589;28;20257;-83
2023/05/04 05:24:01;;;;;;;7.37;4.50;;;;;;;;;;5072213;28;20245;-84
2023/05/04 05:26:26;;;;;;;10.15;4.88;;;;;;;;;;5057662;28;20285;-83
2023/05/04 05:28:52;;;;;;;8.73;4.78;;;;;;;;;;5075095;28;20021;-83
2023/05/04 05:31:17;;;;;;;9.43;5.03;;;;;;;;;;5075805;28;20028;-84
2023/05/04 05:33:42;;;;;;;11.20;5.43;;;;;;;;;;5057845;28;20608;-84
2023/05/04 05:36:07;;;;;;;7.13;5.22;;;;;;;;;;5075527;28;20253;-84
2023/05/04 05:38:33;;;;;;;10.45;6.07;;;;;;;;;;5075581;28;20056;-84
2023/05/04 05:40:58;;;;;;;10.63;5.90;;;;;;;;;;5075404;28;20099;-83
2023/05/04 05:43:23;;;;;;;10.40;5.03;;;;;;;;;;5072298;28;20347;-84
2023/05/04 05:45:48;;;;;;;7.33;5.70;;;;;;;;;;5055815;28;20048;-85
2023/05/04 05:48:14;;;;;;;7.73;5.10;;;;;;;;;;5075296;28;20257;-83
2023/05/04 05:50:39;;;;;;;10.88;6.22;;;;;;;;;;5075450;28;20265;-80
2023/05/04 05:53:04;;;;;;;16.33;6.07;;;;;;;;;;5056935;28;20017;-79
2023/05/04 05:55:29;;;;;;;20.58;9.23;;;;;;;;;;5074955;28;20023;-78
2023/05/04 05:57:55;;;;;;;17.33;9.07;;;;;;;;;;5072976;28;20024;-78
2023/05/04 06:00:20;;;;;;;16.57;9.77;;;;;;;;;;5072655;28;20335;-78
2023/05/04 06:02:45;;;;;;;21.97;9.30;;;;;;;;;;5074267;28;20237;-79
2023/05/04 06:05:11;;;;;;;17.45;8.55;;;;;;;;;;5074627;28;20269;-78
2023/05/04 06:07:36;;;;;;;22.00;9.63;;;;;;;;;;5074661;28;20016;-78
2023/05/04 06:10:01;;;;;;;23.83;8.57;;;;;;;;;;5075057;28;20451;-78
2023/05/04 06:12:27;;;;;;;17.20;8.65;;;;;;;;;;5072801;28;20273;-78
2023/05/04 06:14:52;;;;;;;13.97;8.27;;;;;;;;;;5074334;28;20017;-78
2023/05/04 06:17:18;;;;;;;12.25;7.65;;;;;;;;;;5074700;28;20281;-78
2023/05/04 06:19:44;;;;;;;21.48;7.75;;;;;;;;;;5074841;28;20021;-78
2023/05/04 06:22:09;;;;;;;9.90;7.78;;;;;;;;;;5074734;28;20050;-78
2023/05/04 06:24:35;;;;;;;12.77;7.40;;;;;;;;;;5074356;28;20056;-78
2023/05/04 06:27:01;;;;;;;13.63;6.83;;;;;;;;;;5073906;28;20292;-78
2023/05/04 06:29:26;;;;;;;12.70;6.40;;;;;;;;;;5074761;28;20596;-78
2023/05/04 06:31:51;;;;;;;12.15;6.88;;;;;;;;;;5069223;28;20027;-78
2023/05/04 06:34:17;;;;;;;10.93;6.38;;;;;;;;;;5075411;28;20021;-78
2023/05/04 06:36:42;;;;;;;11.88;7.15;;;;;;;;;;5072970;28;20021;-78
2023/05/04 06:39:07;;;;;;;12.57;6.60;;;;;;;;;;5072881;28;20017;-78
2023/05/04 06:41:33;;;;;;;9.13;6.40;;;;;;;;;;5072632;28;20091;-78
2023/05/04 06:43:58;;;;;;;12.07;6.60;;;;;;;;;;5073061;28;20337;-78
2023/05/04 06:46:24;;;;;;;10.90;5.88;;;;;;;;;;5071928;28;20293;-78
2023/05/04 06:48:49;;;;;;;14.93;7.65;;;;;;;;;;5072616;28;20013;-78
2023/05/04 06:51:15;;;;;;;9.73;5.95;;;;;;;;;;5058457;28;20058;-78
2023/05/04 06:53:40;;;;;;;11.20;5.53;;;;;;;;;;5054683;28;20020;-78
2023/05/04 06:56:06;;;;;;;10.90;5.63;;;;;;;;;;5072668;28;20029;-78
2023/05/04 06:58:31;;;;;;;9.82;6.43;;;;;;;;;;5072471;28;20104;-78
2023/05/04 07:00:57;;;;;;;10.98;6.10;;;;;;;;;;5073677;28;20095;-78
2023/05/04 07:03:22;;;;;;;13.93;6.77;;;;;;;;;;5068394;28;20048;-78
2023/05/04 07:05:49;;;;;;;8.77;5.93;;;;;;;;;;5069768;28;20430;-79
2023/05/04 07:08:14;;;;;;;9.63;6.65;;;;;;;;;;5070227;28;20337;-79
2023/05/04 07:10:40;;;;;;;10.10;6.75;;;;;;;;;;5071393;28;20502;-78
2023/05/04 07:13:06;;;;;;;12.52;6.80;;;;;;;;;;5072557;28;20039;-81
2023/05/04 07:15:35;;;;;;;12.55;5.43;;;;;;;;;;5073190;28;20027;-79
2023/05/04 07:18:01;;;;;;;14.27;6.60;;;;;;;;;;5073237;28;20043;-79
2023/05/04 07:20:26;;;;;;;10.82;6.07;;;;;;;;;;5071925;28;20755;-79
2023/05/04 07:22:55;;;;;;;11.07;5.57;;;;;;;;;;5053985;28;20040;-81
2023/05/04 07:25:20;;;;;;;9.00;6.43;;;;;;;;;;5073079;28;20036;-81
2023/05/04 07:27:45;;;;;;;11.13;6.63;;;;;;;;;;5073146;28;20051;-81
2023/05/04 07:30:11;;;;;;;13.90;6.83;;;;;;;;;;5073362;28;20016;-80
2023/05/04 07:32:36;;;;;;;10.50;6.97;;;;;;;;;;5073060;28;20284;-80
2023/05/04 07:35:01;;;;;;;10.70;7.00;;;;;;;;;;5070922;28;20062;-79
2023/05/04 07:37:26;;;;;;;12.17;5.70;;;;;;;;;;5072313;28;20327;-80
2023/05/04 07:39:51;;;;;;;10.83;6.83;;;;;;;;;;5072638;28;20257;-80
2023/05/04 07:42:17;;;;;;;8.73;6.10;;;;;;;;;;5072860;28;20257;-80
2023/05/04 07:44:42;;;;;;;15.70;6.83;;;;;;;;;;5072788;28;20631;-79
2023/05/04 07:47:07;;;;;;;13.27;6.47;;;;;;;;;;5071536;28;20605;-80
2023/05/04 07:49:32;;;;;;;9.27;6.07;;;;;;;;;;5072702;28;20878;-80
2023/05/04 07:51:58;;;;;;;10.52;6.57;;;;;;;;;;5071343;28;20767;-81
2023/05/04 07:54:23;;;;;;;10.32;6.05;;;;;;;;;;5072074;28;20047;-80
2023/05/04 07:56:48;;;;;;;9.65;5.95;;;;;;;;;;5072338;28;20112;-80
2023/05/04 07:59:16;;;;;;;11.60;5.80;;;;;;;;;;5070588;28;20025;-81
2023/05/04 08:01:41;;;;;;;11.90;6.45;;;;;;;;;;5070595;28;20370;-81
2023/05/04 08:04:06;;;;;;;12.47;7.60;;;;;;;;;;5071709;28;20143;-80
2023/05/04 08:06:34;;;;;;;11.23;6.20;;;;;;;;;;5068987;28;20291;-80
2023/05/04 08:08:59;;;;;;;13.60;6.15;;;;;;;;;;5072464;28;20533;-83
2023/05/04 08:11:25;;;;;;;10.23;6.17;;;;;;;;;;5072461;28;20051;-80
2023/05/04 08:13:51;;;;;;;11.82;5.35;;;;;;;;;;5072511;28;20731;-80
2023/05/04 08:16:16;;;;;;;16.52;8.00;;;;;;;;;;5072064;28;20024;-81
2023/05/04 08:18:42;;;;;;;19.58;6.80;;;;;;;;;;5071208;28;20013;-81
2023/05/04 08:21:07;;;;;;;12.57;5.55;;;;;;;;;;5070788;28;20028;-81
2023/05/04 08:23:32;;;;;;;8.10;5.60;;;;;;;;;;5072257;28;20020;-81
2023/05/04 08:26:00;;;;;;;17.15;7.18;;;;;;;;;;5070547;28;20296;-81
2023/05/04 08:28:25;;;;;;;8.48;5.45;;;;;;;;;;5072195;28;20104;-81
2023/05/04 08:30:50;;;;;;;12.27;5.43;;;;;;;;;;5072344;28;20108;-81
2023/05/04 08:33:16;;;;;;;10.35;4.82;;;;;;;;;;5072133;28;20677;-81
2023/05/04 08:35:41;;;;;;;8.27;4.37;;;;;;;;;;5072117;28;20031;-81
2023/05/04 08:38:06;;;;;;;6.33;4.00;;;;;;;;;;5071887;28;20310;-81
2023/05/04 08:40:32;;;;;;;8.00;4.13;;;;;;;;;;5070811;28;20246;-81
2023/05/04 08:42:57;;;;;;;8.05;4.47;;;;;;;;;;5071356;28;20765;-81
2023/05/04 08:45:23;;;;;;;9.70;4.13;;;;;;;;;;5071979;28;20028;-81
2023/05/04 08:47:49;;;;;;;8.07;3.88;;;;;;;;;;5071887;28;20020;-81
2023/05/04 08:50:14;;;;;;;4.75;3.58;;;;;;;;;;5071887;28;20016;-81
2023/05/04 08:52:46;;;;;;;7.50;3.47;;;;;;;;;;5054023;28;20026;-81
2023/05/04 08:55:12;;;;;;;7.57;3.72;;;;;;;;;;5071961;28;20257;-81
2023/05/04 08:57:40;;;;;;;10.93;3.72;;;;;;;;;;5070030;28;20024;-81
2023/05/04 09:00:06;;;;;;;5.65;3.20;;;;;;;;;;5051330;28;20029;-81
2023/05/04 09:02:32;;;;;;;5.80;3.08;;;;;;;;;;5070248;28;20012;-81
2023/05/04 09:04:57;;;;;;;7.72;3.28;;;;;;;;;;5053745;28;20020;-81
2023/05/04 09:07:22;;;;;;;5.05;3.10;;;;;;;;;;5071814;28;20711;-81
2023/05/04 09:09:49;;;;;;;5.80;3.10;;;;;;;;;;5071880;28;20016;-81
2023/05/04 09:12:15;;;;;;;5.47;2.70;;;;;;;;;;5071696;28;20262;-81
2023/05/04 09:14:41;;;;;;;7.03;3.42;;;;;;;;;;5071740;28;20538;-81
2023/05/04 09:17:13;;;;;;;5.15;3.15;;;;;;;;;;5070838;28;20111;-81
2023/05/04 09:19:42;;;;;;;8.13;4.00;;;;;;;;;;5071753;28;20017;-81
2023/05/04 09:22:15;;;;;;;5.63;3.25;;;;;;;;;;5071627;28;20021;-81
2023/05/04 09:24:41;;;;;;;4.82;3.13;;;;;;;;;;5071674;28;20013;-81
2023/05/04 09:27:09;;;;;;;6.67;3.53;;;;;;;;;;5071689;28;20028;-81
2023/05/04 09:29:38;;;;;;;5.50;3.33;;;;;;;;;;5071449;28;20273;-81
2023/05/04 09:32:04;;;;;;;6.65;3.05;;;;;;;;;;5070731;28;20493;-81
2023/05/04 09:34:29;;;;;;;4.63;2.65;;;;;;;;;;5071614;28;20020;-81
2023/05/04 09:36:58;;;;;;;7.77;3.77;;;;;;;;;;5071475;28;20028;-81
2023/05/04 09:39:23;;;;;;;11.93;4.60;;;;;;;;;;5071474;28;20285;-81
2023/05/04 09:41:48;;;;;;;5.50;2.63;;;;;;;;;;5071521;28;20063;-81
2023/05/04 09:44:21;;;;;;;4.35;2.78;;;;;;;;;;5071988;28;20284;-81
2023/05/04 09:46:56;;;;;;;4.95;2.65;;;;;;;;;;5070299;28;20090;-81
2023/05/04 09:49:31;;;;;;;8.82;2.38;;;;;;;;;;5068668;28;20017;-81
2023/05/04 09:51:57;;;;;;;4.38;2.42;;;;;;;;;;5071462;28;20066;-81
2023/05/04 09:54:23;;;;;;;5.05;2.72;;;;;;;;;;5053473;28;20024;-81
2023/05/04 09:56:51;;;;;;;6.35;2.08;;;;;;;;;;5071253;28;20025;-81
2023/05/04 09:59:16;;;;;;;6.70;3.63;;;;;;;;;;5071259;28;20012;-81
2023/05/04 10:01:42;;;;;;;4.72;2.67;;;;;;;;;;5052273;28;20020;-81
2023/05/04 10:04:07;;;;;;;3.33;2.47;;;;;;;;;;5071438;28;20020;-81
2023/05/04 10:06:33;;;;;;;5.75;2.70;;;;;;;;;;5071290;28;20170;-81
2023/05/04 10:08:59;;;;;;;3.72;2.40;;;;;;;;;;5071243;28;20020;-81
2023/05/04 10:11:25;;;;;;;4.15;2.28;;;;;;;;;;5074269;28;20021;-81
2023/05/04 10:13:50;;;;;;;6.82;3.35;;;;;;;;;;5075250;28;20027;-81
2023/05/04 10:16:23;;;;;;;4.78;2.50;;;;;;;;;;5072976;28;20082;-81
2023/05/04 10:19:06;;;;;;;4.88;2.22;;;;;;;;;;5074785;28;20024;-81
2023/05/04 10:22:01;;;;;;;4.22;2.13;;;;;;;;;;5074782;28;20044;-81
2023/05/04 10:24:35;;;;;;;5.45;2.13;;;;;;;;;;5074378;28;20097;-81
2023/05/04 10:27:07;;;;;;;3.83;2.47;;;;;;;;;;5074663;28;20138;-81
2023/05/04 10:29:32;;;;;;;6.55;2.80;;;;;;;;;;5073552;28;20023;-81
2023/05/04 10:31:58;;;;;;;4.38;2.22;;;;;;;;;;5074426;28;20016;-81
2023/05/04 10:34:27;;;;;;;10.27;3.67;;;;;;;;;;5073423;28;20107;-81
2023/05/04 10:36:53;;;;;;;4.35;2.10;;;;;;;;;;5073934;28;20107;-81
2023/05/04 10:39:21;;;;;;;6.50;2.47;;;;;;;;;;5074504;28;20123;-81
2023/05/04 10:41:59;;;;;;;2.53;2.00;;;;;;;;;;5074362;28;20024;-81
2023/05/04 10:44:24;;;;;;;5.50;2.60;;;;;;;;;;5074296;28;20051;-81
2023/05/04 10:47:04;;;;;;;4.38;2.47;;;;;;;;;;5074181;28;20427;-81
2023/05/04 10:49:29;;;;;;;4.50;2.20;;;;;;;;;;5074318;28;20017;-81
2023/05/04 10:52:10;;;;;;;6.20;2.55;;;;;;;;;;5072923;28;20382;-81
2023/05/04 10:54:36;;;;;;;3.90;2.60;;;;;;;;;;5074241;28;20013;-81
2023/05/04 10:57:02;;;;;;;4.45;2.83;;;;;;;;;;5074015;28;20074;-81
2023/05/04 10:59:27;;;;;;;5.15;2.70;;;;;;;;;;5074009;28;20009;-81
2023/05/04 11:01:52;;;;;;;4.45;2.60;;;;;;;;;;5072098;28;20028;-81
2023/05/04 11:04:21;;;;;;;4.03;2.40;;;;;;;;;;5074404;28;20024;-81
2023/05/04 11:06:57;;;;;;;4.15;2.70;;;;;;;;;;5073961;28;20277;-81
2023/05/04 11:09:22;;;;;;;5.00;2.67;;;;;;;;;;5073234;28;20017;-81
2023/05/04 11:11:47;;;;;;;8.15;3.25;;;;;;;;;;5073920;28;20017;-81
2023/05/04 11:14:20;;;;;;;7.00;2.83;;;;;;;;;;5072366;28;20031;-81
2023/05/04 11:16:45;;;;;;;4.32;2.80;;;;;;;;;;5073604;28;20762;-81
2023/05/04 11:19:11;;;;;;;5.07;2.90;;;;;;;;;;5073816;28;20024;-81
2023/05/04 11:21:36;;;;;;;4.18;2.70;;;;;;;;;;5073198;28;20391;-81
2023/05/04 11:24:02;;;;;;;4.78;2.40;;;;;;;;;;5073631;28;20426;-81
2023/05/04 11:26:27;;;;;;;5.03;3.20;;;;;;;;;;5073410;28;20020;-81
2023/05/04 11:28:52;;;;;;;5.75;2.90;;;;;;;;;;5071997;28;20512;-81
2023/05/04 11:31:19;;;;;;;8.27;3.15;;;;;;;;;;5073309;28;20481;-81
2023/05/04 11:33:46;;;;;;;6.60;3.20;;;;;;;;;;5055249;28;20020;-81
2023/05/04 11:36:12;;;;;;;5.63;3.38;;;;;;;;;;5073429;28;20116;-81
2023/05/04 11:38:37;;;;;;;4.82;3.17;;;;;;;;;;5073194;28;20103;-81
2023/05/04 11:41:02;;;;;;;4.05;3.15;;;;;;;;;;5073207;28;20040;-80
2023/05/04 11:43:28;;;;;;;4.07;3.03;;;;;;;;;;5054223;28;20008;-81
2023/05/04 11:45:54;;;;;;;7.15;3.80;;;;;;;;;;5072983;28;20277;-81
2023/05/04 11:48:20;;;;;;;6.43;3.60;;;;;;;;;;5073063;28;20012;-81
2023/05/04 11:50:46;;;;;;;5.18;3.55;;;;;;;;;;5073088;28;20082;-81
2023/05/04 11:53:12;;;;;;;12.32;4.25;;;;;;;;;;5073457;28;20492;-81
2023/05/04 11:55:37;;;;;;;6.25;3.70;;;;;;;;;;5073086;28;20017;-81
2023/05/04 11:58:04;;;;;;;7.22;3.72;;;;;;;;;;5071705;28;20081;-81
2023/05/04 12:00:38;;;;;;;8.10;4.55;;;;;;;;;;5071748;28;20492;-81
2023/05/04 12:03:11;;;;;;;6.72;4.50;;;;;;;;;;5072806;28;20021;-81
2023/05/04 12:05:37;;;;;;;9.95;4.25;;;;;;;;;;5072779;28;20028;-81
2023/05/04 12:08:02;;;;;;;7.50;4.00;;;;;;;;;;5072736;28;20027;-81
2023/05/04 12:10:28;;;;;;;5.47;3.15;;;;;;;;;;5073116;28;20021;-81
2023/05/04 12:12:53;;;;;;;5.60;3.45;;;;;;;;;;5071586;28;20452;-81
2023/05/04 12:15:33;;;;;;;7.85;3.65;;;;;;;;;;5054647;28;20107;-81
2023/05/04 12:17:59;;;;;;;5.97;3.78;;;;;;;;;;5072495;28;20023;-81
2023/05/04 12:20:25;;;;;;;9.48;4.43;;;;;;;;;;5072401;28;20020;-81
2023/05/04 12:22:50;;;;;;;8.07;3.47;;;;;;;;;;5072393;28;20035;-81
2023/05/04 12:25:18;;;;;;;7.05;3.55;;;;;;;;;;5072377;28;20463;-81
2023/05/04 12:27:44;;;;;;;6.70;4.00;;;;;;;;;;5070621;28;20020;-81
2023/05/04 12:30:09;;;;;;;4.87;3.60;;;;;;;;;;5072313;28;20681;-81
2023/05/04 12:32:35;;;;;;;6.40;3.65;;;;;;;;;;5072395;28;20597;-81
2023/05/04 12:35:00;;;;;;;5.75;3.92;;;;;;;;;;5070924;28;20375;-81
2023/05/04 12:37:25;;;;;;;5.00;2.90;;;;;;;;;;5072064;28;20470;-80
2023/05/04 12:39:50;;;;;;;5.65;3.65;;;;;;;;;;5072160;28;20762;-81
2023/05/04 12:42:16;;;;;;;5.00;3.47;;;;;;;;;;5071345;28;20063;-81
2023/05/04 12:44:41;;;;;;;6.73;3.33;;;;;;;;;;5072309;28;20344;-80
2023/05/04 12:47:06;;;;;;;6.83;3.13;;;;;;;;;;5072058;28;20265;-80
2023/05/04 12:49:31;;;;;;;7.30;3.03;;;;;;;;;;5072020;28;20245;-81
2023/05/04 12:51:57;;;;;;;8.20;3.08;;;;;;;;;;5072086;28;20025;-81
2023/05/04 12:54:22;;;;;;;4.55;3.10;;;;;;;;;;5071935;28;20481;-80
2023/05/04 12:56:47;;;;;;;5.47;3.73;;;;;;;;;;5070700;28;20425;-81
2023/05/04 12:59:12;;;;;;;7.03;3.60;;;;;;;;;;5071999;28;20843;-80
2023/05/04 13:01:39;;;;;;;8.77;3.90;;;;;;;;;;5071568;28;20589;-81
2023/05/04 13:04:04;;;;;;;7.28;3.55;;;;;;;;;;5071796;28;20047;-81
2023/05/04 13:06:29;;;;;;;6.85;3.83;;;;;;;;;;5071855;28;20236;-81
2023/05/04 13:08:54;;;;;;;4.20;3.33;;;;;;;;;;5071771;28;20021;-81
2023/05/04 13:11:19;;;;;;;4.93;3.33;;;;;;;;;;5071177;28;20273;-81
2023/05/04 13:13:45;;;;;;;7.18;3.67;;;;;;;;;;5071392;28;20264;-81
2023/05/04 13:16:11;;;;;;;7.72;4.07;;;;;;;;;;5070581;28;20074;-81
2023/05/04 13:18:36;;;;;;;5.10;3.80;;;;;;;;;;5071774;28;20475;-81
2023/05/04 13:21:02;;;;;;;6.90;3.63;;;;;;;;;;5071629;28;20025;-81
2023/05/04 13:23:27;;;;;;;5.00;3.63;;;;;;;;;;5071586;28;20059;-81
2023/05/04 13:25:53;;;;;;;8.30;4.78;;;;;;;;;;5070396;28;20368;-81
2023/05/04 13:28:18;;;;;;;6.50;3.70;;;;;;;;;;5071431;28;20051;-80
2023/05/04 13:30:44;;;;;;;6.40;3.50;;;;;;;;;;5071905;28;20044;-81
2023/05/04 13:33:09;;;;;;;5.67;3.37;;;;;;;;;;5070485;28;20301;-81
2023/05/04 13:35:34;;;;;;;4.53;3.15;;;;;;;;;;5071638;28;20716;-81
2023/05/04 13:37:59;;;;;;;5.63;3.70;;;;;;;;;;5071458;28;20513;-81
2023/05/04 13:40:25;;;;;;;7.10;3.50;;;;;;;;;;5071273;28;20789;-81
2023/05/04 13:42:50;;;;;;;5.43;2.95;;;;;;;;;;5071637;28;20024;-80
2023/05/04 13:45:15;;;;;;;6.80;3.30;;;;;;;;;;5054462;28;20020;-81
2023/05/04 13:47:42;;;;;;;4.53;2.75;;;;;;;;;;5073453;28;20780;-81
2023/05/04 13:50:07;;;;;;;4.70;2.92;;;;;;;;;;5075640;28;20020;-81
2023/05/04 13:52:32;;;;;;;4.57;3.15;;;;;;;;;;5075776;28;20025;-81
2023/05/04 13:54:58;;;;;;;6.78;2.67;;;;;;;;;;5075287;28;20027;-80
2023/05/04 13:57:25;;;;;;;3.70;2.75;;;;;;;;;;5075288;28;20020;-80
2023/05/04 13:59:51;;;;;;;5.50;2.83;;;;;;;;;;5075347;28;20020;-80
2023/05/04 14:02:16;;;;;;;3.55;2.67;;;;;;;;;;5074292;28;20488;-81
2023/05/04 14:04:42;;;;;;;4.90;2.60;;;;;;;;;;5056666;28;20071;-81
2023/05/04 14:07:08;;;;;;;6.10;2.63;;;;;;;;;;5074656;28;20681;-80
2023/05/04 14:09:33;;;;;;;6.65;2.85;;;;;;;;;;5074986;28;20009;-81
2023/05/04 14:11:59;;;;;;;3.70;2.47;;;;;;;;;;5075043;28;20020;-81
2023/05/04 14:14:24;;;;;;;3.38;2.50;;;;;;;;;;5074856;28;20249;-81
2023/05/04 14:16:49;;;;;;;5.00;2.60;;;;;;;;;;5074102;28;20082;-80
2023/05/04 14:19:15;;;;;;;4.80;2.77;;;;;;;;;;5074720;28;20261;-81
2023/05/04 14:21:40;;;;;;;4.13;2.70;;;;;;;;;;5074808;28;20299;-80
2023/05/04 14:24:05;;;;;;;3.35;2.40;;;;;;;;;;5074777;28;20246;-81
2023/05/04 14:26:31;;;;;;;3.13;1.97;;;;;;;;;;5074646;28;20470;-80
2023/05/04 14:28:56;;;;;;;4.95;2.97;;;;;;;;;;5073455;28;20277;-81
2023/05/04 14:31:21;;;;;;;5.07;2.58;;;;;;;;;;5074822;28;20489;-81
2023/05/04 14:33:46;;;;;;;5.70;2.47;;;;;;;;;;5074684;28;20025;-81